Tropical Cyclones
[Index]
Main Index Home Page Stock Weather Photos Extreme Storms Discussion Storm News and Storm Chasing Reports Tropical Cyclones / Hurricanes / Typhoons Weather Data and Links Wild Fires / Bushfires Weather Observation Techniques Weather Picture Catalogue Tornado Pictures and Reports Stock Video Footage and DVDs for sale
Season 2011-2012 Tropical Cyclone IGGY Track Map
Season 2011-2012 Summaries: [BoM-AU] [JTWC-AU] [JTWC-SIO] [JTWC-SPAC] [JTWC-SH]
<<- Previous TC | JTWC 2011-2012 Season | Next TC ->>

click for intensity scale information  Lat/long Grid: Show Hide

 Date Labels: Show Hide

Joint Typhoon Warning Centre Cyclone Data

Name: IGGY

24 Jan 2012 00:00 UTC to 03 Feb 2012 00:00 UTC

    date/time    lat    long     hPa   cat  kts
2012-01-24 00   16.5   112.9    1003         20          
2012-01-24 06   16.7   111.9    1004         25          
2012-01-24 12   16.3   110.8    1004         25          
2012-01-24 18   16.1   109.7     996         30          
2012-01-25 00   15.9   109.0    1000         30          
2012-01-25 06   15.9   108.3     996         35          
2012-01-25 12   15.8   108.1     996         35          
2012-01-25 18   15.7   108.3     996         35          
2012-01-26 00   16.0   108.7     989    1    45          
2012-01-26 06   16.5   108.9     989    1    45          
2012-01-26 12   16.9   109.2     989    1    45          
2012-01-26 18   17.3   109.6     985    1    50          
2012-01-27 00   17.9   110.0     982    2    55          
2012-01-27 00   17.9   110.0     982    2    55          
2012-01-27 06   18.5   110.3     982    2    55          
2012-01-27 06   18.5   110.3     982    2    55          
2012-01-27 12   19.1   110.7     982    2    55          
2012-01-27 12   19.1   110.7     982    2    55          
2012-01-27 18   19.4   110.9     982    2    55          
2012-01-27 18   19.4   110.9     982    2    55          
2012-01-28 00   19.7   110.8     982    2    55          
2012-01-28 00   19.7   110.8     982    2    55          
2012-01-28 06   20.0   110.7     982    2    55          
2012-01-28 06   20.0   110.7     982    2    55          
2012-01-28 12   20.2   110.8     982    2    55          
2012-01-28 12   20.2   110.8     982    2    55          
2012-01-28 18   20.5   110.9     982    2    55          
2012-01-28 18   20.5   110.9     982    2    55          
2012-01-29 00   20.3   111.2     982    2    55          
2012-01-29 00   20.3   111.2     982    2    55          
2012-01-29 06   20.0   111.1     982    2    55          
2012-01-29 06   20.0   111.1     982    2    55          
2012-01-29 12   19.8   111.0     982    2    55          
2012-01-29 12   19.8   111.0     982    2    55          
2012-01-29 18   19.8   110.8     982    2    55          
2012-01-29 18   19.8   110.8     982    2    55          
2012-01-30 00   19.9   110.6     982    2    55          
2012-01-30 00   19.9   110.6     982    2    55          
2012-01-30 06   20.2   110.4     982    2    55          
2012-01-30 06   20.2   110.4     982    2    55          
2012-01-30 12   20.6   110.3     982    2    55          
2012-01-30 12   20.6   110.3     982    2    55          
2012-01-30 18   21.2   109.9     982    2    55          
2012-01-30 18   21.2   109.9     982    2    55          
2012-01-31 00   21.9   109.4     982    2    55          
2012-01-31 00   21.9   109.4     982    2    55          
2012-01-31 06   22.8   108.8     982    2    55          
2012-01-31 06   22.8   108.8     982    2    55          
2012-01-31 12   23.9   108.3     974    2    65          
2012-01-31 12   23.9   108.3     974    2    65          
2012-01-31 18   25.0   107.8     970    2    70          
2012-01-31 18   25.0   107.8     970    2    70          
2012-01-31 18   25.0   107.8     970    2    70          
2012-02-01 00   26.1   107.8     974    2    65          
2012-02-01 00   26.1   107.8     974    2    65          
2012-02-01 06   27.3   107.7     978    2    60          
2012-02-01 06   27.3   107.7     978    2    60          
2012-02-01 12   28.5   108.8     978    2    60          
2012-02-01 12   28.5   108.8     978    2    60          
2012-02-01 18   29.2   109.6     985    1    50          
2012-02-01 18   29.2   109.6     985    1    50          
2012-02-02 00   29.8   110.7     985    1    50          
2012-02-02 00   29.8   110.7     985    1    50          
2012-02-02 06   30.0   112.0     993    1    40          
2012-02-02 12   29.9   113.3    1000         30          
2012-02-02 18   29.8   114.4    1004         25          
2012-02-03 00   29.9   115.4    1004         25          
Winds are 1-min average.

Tropical cyclone tracks developed by Michael Bath using data from the Joint Typhoon Warning Centre Best Tracks and Google Maps.


[Australian Severe Weather index] [Copyright Notice] [Email Contacts] [Search This Site] [Privacy Policy]
Document: tropical_cyclone_iggy.htm Updated: 28 June 2017